Time;durP1;ratioP1;P1;durP2;ratioP2;P2;SDS_P1;SDS_P2;PMS_P1;PMS_P2;Temp;Humidity;BMP_temperature;BMP_pressure;BME280_temperature;BME280_humidity;BME280_pressure;Samples;Min_cycle;Max_cycle;Signal;HPM_P1;HPM_P2
2021/01/07 00:02:23;;;;;;;18.02;8.50;;;3.60;99.90;;;;;;5014058;28;20030;-55
2021/01/07 00:04:49;;;;;;;13.57;6.75;;;3.50;99.90;;;;;;5014292;28;20026;-58
2021/01/07 00:07:15;;;;;;;15.00;7.45;;;3.40;99.90;;;;;;5013909;28;20037;-59
2021/01/07 00:09:41;;;;;;;16.10;7.65;;;3.40;99.90;;;;;;5014111;28;20034;-57
2021/01/07 00:12:08;;;;;;;16.27;8.25;;;3.50;99.90;;;;;;5013996;28;20041;-58
2021/01/07 00:14:33;;;;;;;13.48;7.22;;;3.50;99.90;;;;;;5013819;28;20041;-58
2021/01/07 00:16:59;;;;;;;16.23;7.75;;;3.50;99.90;;;;;;5013892;28;20034;-58
2021/01/07 00:19:25;;;;;;;16.40;7.65;;;3.50;99.90;;;;;;5013693;28;20068;-58
2021/01/07 00:21:51;;;;;;;18.38;7.93;;;3.40;99.90;;;;;;5013889;28;20037;-59
2021/01/07 00:24:17;;;;;;;13.07;7.43;;;3.40;99.90;;;;;;5013614;28;20033;-57
2021/01/07 00:26:43;;;;;;;15.30;7.90;;;3.50;99.90;;;;;;5013431;28;20049;-58
2021/01/07 00:29:09;;;;;;;14.45;6.90;;;3.40;99.90;;;;;;5013694;28;20434;-59
2021/01/07 00:31:35;;;;;;;15.27;7.32;;;3.50;99.90;;;;;;5013705;28;20057;-59
2021/01/07 00:34:01;;;;;;;16.15;7.22;;;3.40;99.90;;;;;;5013610;28;20037;-58
2021/01/07 00:36:27;;;;;;;15.60;7.80;;;3.40;99.90;;;;;;5013406;28;20041;-58
2021/01/07 00:38:53;;;;;;;16.25;7.68;;;3.40;99.90;;;;;;5013504;28;20048;-59
2021/01/07 00:41:20;;;;;;;18.65;7.53;;;3.50;99.90;;;;;;5013491;28;20030;-58
2021/01/07 00:43:48;;;;;;;13.90;6.93;;;3.60;99.90;;;;;;5013260;28;20038;-58
2021/01/07 00:46:15;;;;;;;12.43;6.97;;;3.60;99.90;;;;;;5013405;28;20026;-58
2021/01/07 00:48:41;;;;;;;15.95;6.55;;;3.70;99.90;;;;;;5013538;28;20025;-59
2021/01/07 00:51:07;;;;;;;14.52;7.13;;;3.60;99.90;;;;;;5013198;28;20037;-58
2021/01/07 00:53:34;;;;;;;16.27;7.68;;;3.60;99.90;;;;;;5013398;28;20030;-57
2021/01/07 00:56:00;;;;;;;19.15;7.50;;;3.50;99.90;;;;;;5013488;28;20033;-57
2021/01/07 00:58:27;;;;;;;14.40;7.13;;;3.50;99.90;;;;;;5012950;28;20033;-58
2021/01/07 01:00:53;;;;;;;15.75;6.88;;;3.50;99.90;;;;;;5013167;28;20036;-57
2021/01/07 01:03:21;;;;;;;16.73;7.07;;;3.50;99.90;;;;;;5012912;28;20034;-57
2021/01/07 01:05:51;;;;;;;16.92;8.02;;;3.50;99.90;;;;;;5012932;28;20034;-58
2021/01/07 01:08:18;;;;;;;16.73;7.80;;;3.40;99.90;;;;;;5013063;28;20044;-56
2021/01/07 01:10:46;;;;;;;19.38;8.05;;;3.30;99.90;;;;;;5012944;28;20395;-59
2021/01/07 01:13:12;;;;;;;16.52;8.02;;;3.40;99.90;;;;;;5013163;28;20057;-56
2021/01/07 01:15:38;;;;;;;16.98;7.45;;;3.40;99.90;;;;;;5028174;28;20091;-58
2021/01/07 01:18:05;;;;;;;17.80;8.55;;;3.60;99.90;;;;;;5013049;28;20030;-58
2021/01/07 01:20:31;;;;;;;16.08;7.28;;;3.50;99.90;;;;;;5012692;28;20080;-58
2021/01/07 01:22:57;;;;;;;17.55;8.38;;;3.40;99.90;;;;;;5013046;28;20034;-60
2021/01/07 01:25:23;;;;;;;15.02;7.78;;;3.40;99.90;;;;;;5012565;28;20045;-58
2021/01/07 01:27:49;;;;;;;16.38;8.02;;;3.40;99.90;;;;;;5013035;28;20026;-57
2021/01/07 01:30:16;;;;;;;15.75;7.72;;;3.50;99.90;;;;;;5012517;28;20060;-57
2021/01/07 01:32:44;;;;;;;23.40;9.40;;;3.50;99.90;;;;;;5012667;28;20034;-57
2021/01/07 01:35:12;;;;;;;16.05;7.43;;;3.50;99.90;;;;;;5012522;28;20030;-57
2021/01/07 01:37:39;;;;;;;17.58;8.07;;;3.50;99.90;;;;;;5012422;28;20040;-57
2021/01/07 01:40:08;;;;;;;15.52;7.75;;;3.40;99.90;;;;;;5012700;28;20031;-58
2021/01/07 01:42:34;;;;;;;16.02;7.88;;;3.50;99.90;;;;;;5012635;28;20030;-58
2021/01/07 01:45:00;;;;;;;16.08;8.43;;;3.50;99.90;;;;;;5012699;28;20101;-58
2021/01/07 01:47:27;;;;;;;18.30;8.40;;;3.40;99.90;;;;;;5012120;28;20128;-59
2021/01/07 01:49:55;;;;;;;16.45;7.55;;;3.30;99.90;;;;;;5012414;28;20034;-57
2021/01/07 01:52:23;;;;;;;17.27;7.97;;;3.30;99.90;;;;;;5012323;28;20034;-57
2021/01/07 01:54:49;;;;;;;17.10;8.23;;;3.40;99.90;;;;;;5012561;28;20116;-58
2021/01/07 01:57:17;;;;;;;16.52;7.63;;;3.50;99.90;;;;;;5012647;28;20034;-55
2021/01/07 01:59:44;;;;;;;15.15;7.72;;;3.50;99.90;;;;;;5012353;28;20109;-58
2021/01/07 02:02:20;;;;;;;15.73;7.45;;;3.50;99.90;;;;;;5012339;28;20026;-58
2021/01/07 02:04:47;;;;;;;20.25;8.82;;;3.40;99.90;;;;;;5012256;28;20129;-58
2021/01/07 02:07:22;;;;;;;20.48;9.40;;;3.40;99.90;;;;;;5012387;28;20029;-58
2021/01/07 02:09:49;;;;;;;19.40;9.90;;;3.40;99.90;;;;;;5011308;28;20030;-59
2021/01/07 02:12:16;;;;;;;23.27;10.43;;;3.50;99.90;;;;;;5012156;28;20026;-58
2021/01/07 02:14:44;;;;;;;17.52;9.13;;;3.40;99.90;;;;;;5014533;28;20033;-59
2021/01/07 02:17:11;;;;;;;16.63;7.80;;;3.50;99.90;;;;;;5016172;28;20034;-60
2021/01/07 02:19:38;;;;;;;22.98;10.02;;;3.40;99.90;;;;;;5016073;28;20064;-58
2021/01/07 02:22:05;;;;;;;20.48;9.55;;;3.20;99.90;;;;;;5016324;28;20025;-59
2021/01/07 02:24:32;;;;;;;18.48;9.23;;;3.30;99.90;;;;;;5016080;28;20108;-57
2021/01/07 02:27:06;;;;;;;19.60;9.40;;;3.20;99.90;;;;;;5015719;28;20046;-56
2021/01/07 02:29:34;;;;;;;18.75;9.13;;;3.30;99.90;;;;;;5015994;28;20026;-57
2021/01/07 02:32:00;;;;;;;16.90;8.75;;;3.30;99.90;;;;;;5015762;28;20030;-57
2021/01/07 02:34:26;;;;;;;17.70;8.60;;;3.30;99.90;;;;;;5014718;28;20088;-58
2021/01/07 02:36:52;;;;;;;17.83;8.35;;;3.40;99.90;;;;;;5016032;28;20044;-57
2021/01/07 02:39:18;;;;;;;17.17;8.43;;;3.50;99.90;;;;;;5015999;28;20048;-59
2021/01/07 02:41:55;;;;;;;16.05;8.02;;;3.60;99.90;;;;;;5015620;28;20084;-58
2021/01/07 02:44:22;;;;;;;18.83;8.90;;;3.60;99.90;;;;;;5015859;28;20061;-58
2021/01/07 02:46:53;;;;;;;17.27;8.43;;;3.60;99.90;;;;;;5014533;28;20084;-58
2021/01/07 02:49:19;;;;;;;17.17;8.80;;;3.50;99.90;;;;;;5015619;28;20026;-59
2021/01/07 02:51:46;;;;;;;17.98;8.63;;;3.40;99.90;;;;;;5015823;28;20030;-59
2021/01/07 02:54:12;;;;;;;20.50;9.60;;;3.40;99.90;;;;;;5015913;28;20030;-59
2021/01/07 02:56:38;;;;;;;20.38;9.65;;;3.40;99.90;;;;;;5015569;28;20129;-58
2021/01/07 02:59:04;;;;;;;22.30;9.90;;;3.20;99.90;;;;;;5015687;28;20108;-58
2021/01/07 03:01:32;;;;;;;20.65;9.43;;;3.10;99.90;;;;;;5015392;28;20030;-58
2021/01/07 03:03:58;;;;;;;17.25;7.97;;;2.90;99.90;;;;;;5015347;28;20061;-58
2021/01/07 03:06:25;;;;;;;19.40;9.13;;;2.80;99.90;;;;;;5015021;28;20034;-57
2021/01/07 03:08:51;;;;;;;18.55;8.77;;;2.70;99.90;;;;;;5015049;28;20037;-58
2021/01/07 03:11:18;;;;;;;21.98;8.55;;;2.70;99.90;;;;;;5015176;28;20041;-57
2021/01/07 03:13:45;;;;;;;19.33;9.00;;;2.90;99.90;;;;;;5015052;28;20087;-57
2021/01/07 03:16:11;;;;;;;18.10;9.35;;;3.00;99.90;;;;;;5015015;28;20069;-56
2021/01/07 03:18:37;;;;;;;19.05;9.07;;;3.10;99.90;;;;;;5015236;28;20073;-58
2021/01/07 03:21:03;;;;;;;17.05;8.48;;;2.90;99.90;;;;;;5015206;28;20045;-57
2021/01/07 03:23:30;;;;;;;17.48;8.63;;;2.80;99.90;;;;;;5014776;28;20122;-55
2021/01/07 03:25:56;;;;;;;17.35;9.20;;;2.70;99.90;;;;;;5014372;28;20053;-57
2021/01/07 03:28:22;;;;;;;22.67;9.68;;;2.80;99.90;;;;;;5015073;28;20026;-57
2021/01/07 03:30:48;;;;;;;18.80;9.10;;;2.80;99.90;;;;;;5014870;28;20052;-56
2021/01/07 03:33:14;;;;;;;17.80;8.60;;;2.80;99.90;;;;;;5015035;28;20045;-57
2021/01/07 03:35:40;;;;;;;15.35;8.85;;;2.80;99.90;;;;;;5014759;28;20177;-58
2021/01/07 03:38:06;;;;;;;15.77;8.25;;;2.80;99.90;;;;;;5014706;28;20211;-58
2021/01/07 03:40:32;;;;;;;17.50;8.95;;;2.80;99.90;;;;;;5014699;28;20053;-57
2021/01/07 03:42:57;;;;;;;15.15;8.10;;;2.90;99.90;;;;;;5014840;28;20060;-57
2021/01/07 03:45:24;;;;;;;15.13;7.38;;;3.00;99.90;;;;;;5014406;28;20030;-58
2021/01/07 03:47:49;;;;;;;17.70;9.13;;;3.10;99.90;;;;;;5014768;28;20029;-58
2021/01/07 03:50:15;;;;;;;18.30;8.85;;;3.10;99.90;;;;;;5014448;28;20434;-58
2021/01/07 03:52:41;;;;;;;19.02;9.75;;;3.10;99.90;;;;;;5014303;28;20037;-57
2021/01/07 03:55:08;;;;;;;19.63;9.63;;;3.10;99.90;;;;;;5014603;28;20171;-57
2021/01/07 03:57:34;;;;;;;16.38;8.68;;;3.00;99.90;;;;;;5014413;28;20037;-58
2021/01/07 04:00:00;;;;;;;21.10;9.38;;;3.00;99.90;;;;;;5014240;28;20033;-57
2021/01/07 04:02:26;;;;;;;20.17;8.60;;;3.00;99.90;;;;;;5014283;28;20040;-58
2021/01/07 04:04:52;;;;;;;19.20;9.48;;;3.00;99.90;;;;;;5014181;28;20045;-58
2021/01/07 04:07:18;;;;;;;16.48;8.32;;;2.90;99.90;;;;;;5014029;28;20041;-58
2021/01/07 04:09:44;;;;;;;17.08;8.43;;;2.90;99.90;;;;;;5014170;28;20033;-58
2021/01/07 04:12:09;;;;;;;18.05;9.27;;;3.00;99.90;;;;;;5013999;28;20045;-57
2021/01/07 04:14:35;;;;;;;21.13;9.20;;;2.90;99.90;;;;;;5013910;28;20391;-58
2021/01/07 04:17:02;;;;;;;19.05;9.20;;;3.00;99.90;;;;;;5014161;28;20025;-56
2021/01/07 04:19:28;;;;;;;19.63;9.15;;;2.90;99.90;;;;;;5012833;28;20026;-57
2021/01/07 04:21:54;;;;;;;17.70;8.10;;;2.90;99.90;;;;;;5014113;28;20037;-58
2021/01/07 04:24:20;;;;;;;17.92;9.38;;;2.90;99.90;;;;;;5013798;28;20037;-58
2021/01/07 04:26:46;;;;;;;16.35;8.85;;;2.90;99.90;;;;;;5013442;28;20064;-58
2021/01/07 04:29:12;;;;;;;19.30;9.52;;;2.80;99.90;;;;;;5013658;28;20164;-56
2021/01/07 04:31:39;;;;;;;19.75;9.25;;;2.90;99.90;;;;;;5013812;28;20037;-58
2021/01/07 04:34:06;;;;;;;18.67;9.00;;;2.80;99.90;;;;;;5013653;28;20032;-58
2021/01/07 04:36:32;;;;;;;21.20;9.55;;;2.80;99.90;;;;;;5012766;28;20034;-58
2021/01/07 04:38:59;;;;;;;20.15;9.95;;;2.90;99.90;;;;;;5013816;28;20036;-58
2021/01/07 04:41:25;;;;;;;23.40;9.15;;;2.80;99.90;;;;;;5013649;28;20033;-57
2021/01/07 04:44:01;;;;;;;19.05;10.10;;;2.90;99.90;;;;;;5013488;28;20045;-57
2021/01/07 04:46:27;;;;;;;25.25;11.27;;;2.80;99.90;;;;;;5013405;28;20076;-58
2021/01/07 04:48:54;;;;;;;21.42;10.52;;;2.70;99.90;;;;;;5013376;28;20080;-57
2021/01/07 04:51:20;;;;;;;26.15;10.23;;;2.70;99.90;;;;;;5012043;28;20033;-58
2021/01/07 04:53:48;;;;;;;22.83;10.23;;;2.60;99.90;;;;;;5011969;28;20034;-58
2021/01/07 04:56:14;;;;;;;20.25;10.55;;;2.50;99.90;;;;;;5013185;28;20061;-58
2021/01/07 04:58:40;;;;;;;21.42;9.63;;;2.40;99.90;;;;;;5013175;28;20057;-60
2021/01/07 05:01:06;;;;;;;21.90;10.55;;;2.50;99.90;;;;;;5011034;28;20042;-58
2021/01/07 05:03:34;;;;;;;21.27;10.23;;;2.50;99.90;;;;;;5012818;28;20033;-55
2021/01/07 05:06:00;;;;;;;20.75;11.15;;;2.50;99.90;;;;;;5013108;28;20038;-58
2021/01/07 05:08:27;;;;;;;19.00;9.60;;;2.60;99.90;;;;;;5013302;28;20088;-58
2021/01/07 05:10:54;;;;;;;23.73;10.35;;;2.60;99.90;;;;;;5013070;28;20026;-57
2021/01/07 05:13:23;;;;;;;19.80;10.30;;;2.50;99.90;;;;;;5013089;28;20032;-55
2021/01/07 05:15:49;;;;;;;22.45;10.85;;;2.60;99.90;;;;;;5012186;28;20037;-56
2021/01/07 05:18:15;;;;;;;22.77;11.00;;;2.60;99.90;;;;;;5012519;28;20034;-53
2021/01/07 05:20:42;;;;;;;23.90;11.50;;;2.70;99.90;;;;;;5012216;28;20026;-58
2021/01/07 05:23:09;;;;;;;25.65;13.05;;;2.70;99.90;;;;;;5012579;28;20040;-60
2021/01/07 05:25:41;;;;;;;22.63;10.70;;;2.70;99.90;;;;;;5011655;28;20045;-57
2021/01/07 05:28:08;;;;;;;24.90;11.82;;;2.80;99.90;;;;;;5011884;28;20109;-57
2021/01/07 05:30:35;;;;;;;24.90;11.60;;;2.90;99.90;;;;;;5011563;28;20022;-56
2021/01/07 05:33:09;;;;;;;28.75;13.30;;;3.00;99.90;;;;;;5009504;28;20030;-56
2021/01/07 05:35:37;;;;;;;24.67;12.25;;;3.00;99.90;;;;;;5026818;28;20083;-56
2021/01/07 05:38:08;;;;;;;25.45;12.05;;;2.90;99.90;;;;;;5012276;28;20036;-54
2021/01/07 05:40:35;;;;;;;27.98;13.23;;;3.00;99.90;;;;;;5012026;28;20022;-55
2021/01/07 05:43:10;;;;;;;31.30;14.50;;;2.90;99.90;;;;;;5012378;28;20038;-55
2021/01/07 05:45:38;;;;;;;28.40;12.77;;;3.00;99.90;;;;;;5012061;28;20036;-61
2021/01/07 05:48:06;;;;;;;25.52;13.02;;;3.00;99.90;;;;;;5010820;28;20033;-56
2021/01/07 05:50:40;;;;;;;30.60;14.00;;;2.90;99.90;;;;;;5011612;28;20054;-56
2021/01/07 05:53:07;;;;;;;29.73;14.50;;;2.90;99.90;;;;;;5010067;28;20036;-55
2021/01/07 05:55:33;;;;;;;33.80;14.68;;;2.90;99.90;;;;;;5011612;28;20028;-57
2021/01/07 05:58:03;;;;;;;34.22;14.98;;;2.80;99.90;;;;;;5011723;28;20101;-56
2021/01/07 06:00:32;;;;;;;33.40;14.70;;;2.60;99.90;;;;;;5011877;28;20030;-56
2021/01/07 06:03:03;;;;;;;30.38;13.98;;;2.60;99.90;;;;;;5012032;28;20109;-51
2021/01/07 06:05:30;;;;;;;28.23;14.43;;;2.70;99.90;;;;;;5011779;28;20080;-56
2021/01/07 06:07:58;;;;;;;31.38;14.68;;;2.50;99.90;;;;;;5011840;28;20030;-64
2021/01/07 06:10:24;;;;;;;33.67;13.57;;;2.50;99.90;;;;;;5010468;28;20022;-57
2021/01/07 06:12:52;;;;;;;33.17;14.68;;;2.60;99.90;;;;;;5011470;28;20133;-56
2021/01/07 06:15:22;;;;;;;28.27;13.85;;;2.60;99.90;;;;;;5011635;28;20018;-58
2021/01/07 06:17:49;;;;;;;26.73;13.18;;;2.60;99.90;;;;;;5010324;28;20034;-57
2021/01/07 06:20:20;;;;;;;26.38;13.35;;;2.60;99.90;;;;;;5010681;28;20033;-57
2021/01/07 06:22:54;;;;;;;27.30;13.05;;;2.70;99.90;;;;;;5010077;28;20037;-57
2021/01/07 06:25:23;;;;;;;30.08;13.07;;;2.90;99.90;;;;;;5011401;28;20030;-57
2021/01/07 06:27:51;;;;;;;25.42;12.93;;;2.80;99.90;;;;;;5011911;28;20096;-58
2021/01/07 06:30:17;;;;;;;29.25;14.60;;;2.70;99.90;;;;;;5012329;28;20038;-58
2021/01/07 06:33:05;;;;;;;32.90;16.20;;;2.70;99.90;;;;;;5012167;28;20108;-57
2021/01/07 06:35:42;;;;;;;32.13;15.88;;;2.70;99.90;;;;;;5011992;28;20029;-57
2021/01/07 06:38:14;;;;;;;35.15;16.55;;;2.60;99.90;;;;;;5012105;28;20030;-57
2021/01/07 06:40:42;;;;;;;38.28;16.95;;;2.40;99.90;;;;;;5010563;28;20054;-57
2021/01/07 06:43:14;;;;;;;34.42;15.13;;;2.40;99.90;;;;;;5012101;28;20026;-56
2021/01/07 06:45:49;;;;;;;36.05;16.58;;;2.50;99.90;;;;;;5011836;28;20022;-59
2021/01/07 06:48:30;;;;;;;33.90;14.90;;;2.50;99.90;;;;;;5012168;28;20034;-57
2021/01/07 06:50:57;;;;;;;33.37;15.70;;;2.50;99.90;;;;;;5011951;28;20038;-56
2021/01/07 06:53:25;;;;;;;32.45;15.65;;;2.60;99.90;;;;;;5011986;28;20374;-57
2021/01/07 06:56:18;;;;;;;29.63;14.55;;;2.80;99.90;;;;;;5010383;28;20048;-55
2021/01/07 06:58:46;;;;;;;27.08;13.25;;;2.70;99.90;;;;;;5011371;28;20189;-55
2021/01/07 07:01:18;;;;;;;30.55;13.75;;;2.80;99.90;;;;;;5013504;28;20045;-56
2021/01/07 07:03:52;;;;;;;35.70;14.73;;;2.80;99.90;;;;;;5014413;28;20025;-55
2021/01/07 07:06:25;;;;;;;28.17;12.68;;;2.70;99.90;;;;;;5013524;28;20030;-55
2021/01/07 07:08:50;;;;;;;29.60;13.55;;;2.80;99.90;;;;;;5014495;28;20041;-55
2021/01/07 07:11:34;;;;;;;32.45;13.82;;;2.70;99.90;;;;;;5014845;28;20041;-56
2021/01/07 07:14:03;;;;;;;28.92;13.25;;;2.70;99.90;;;;;;5015076;28;20034;-56
2021/01/07 07:16:35;;;;;;;30.08;12.93;;;2.80;99.90;;;;;;5013908;28;20036;-57
2021/01/07 07:19:02;;;;;;;30.58;13.85;;;3.00;99.90;;;;;;5015222;28;20030;-55
2021/01/07 07:21:29;;;;;;;31.83;14.15;;;2.90;99.90;;;;;;5014820;28;20026;-55
2021/01/07 07:24:06;;;;;;;30.92;14.05;;;2.90;99.90;;;;;;5015062;28;20034;-56
2021/01/07 07:26:38;;;;;;;31.52;14.43;;;2.90;99.90;;;;;;5013612;28;20073;-57
2021/01/07 07:29:13;;;;;;;34.42;15.68;;;3.00;99.90;;;;;;5015081;28;20070;-53
2021/01/07 07:31:46;;;;;;;31.48;15.27;;;3.00;99.90;;;;;;5014734;28;20037;-56
2021/01/07 07:34:14;;;;;;;34.47;13.85;;;2.90;99.90;;;;;;5014631;28;20054;-57
2021/01/07 07:36:41;;;;;;;34.80;12.55;;;2.80;99.90;;;;;;5013213;28;20037;-55
2021/01/07 07:39:08;;;;;;;37.53;15.20;;;2.80;99.90;;;;;;5013147;28;20041;-56
2021/01/07 07:41:45;;;;;;;34.42;13.70;;;2.70;99.90;;;;;;5014782;28;20032;-55
2021/01/07 07:44:13;;;;;;;35.50;14.85;;;2.70;99.90;;;;;;5014556;28;20042;-55
2021/01/07 07:46:39;;;;;;;34.65;14.00;;;2.70;99.90;;;;;;5014644;28;20087;-51
2021/01/07 07:49:10;;;;;;;31.35;13.63;;;2.80;99.90;;;;;;5014569;28;20041;-56
2021/01/07 07:51:36;;;;;;;33.33;14.95;;;2.70;99.90;;;;;;5029804;28;20057;-55
2021/01/07 07:54:08;;;;;;;35.28;15.48;;;2.70;99.90;;;;;;5014475;28;20034;-55
2021/01/07 07:56:34;;;;;;;35.35;14.93;;;2.60;99.90;;;;;;5014532;28;20116;-56
2021/01/07 07:59:06;;;;;;;34.45;13.70;;;2.70;99.90;;;;;;5014390;28;20034;-54
2021/01/07 08:01:46;;;;;;;36.40;13.52;;;2.70;99.90;;;;;;5014439;28;20036;-55
2021/01/07 08:04:18;;;;;;;30.08;12.02;;;2.70;99.90;;;;;;5014495;28;20030;-53
2021/01/07 08:06:46;;;;;;;28.17;13.02;;;2.70;99.90;;;;;;5013960;28;20033;-52
2021/01/07 08:09:20;;;;;;;27.55;11.75;;;2.70;99.90;;;;;;5014286;28;20030;-51
2021/01/07 08:11:54;;;;;;;32.65;13.68;;;2.80;99.90;;;;;;5011743;28;20033;-55
2021/01/07 08:14:28;;;;;;;30.13;12.57;;;2.80;99.90;;;;;;5013924;28;20030;-53
2021/01/07 08:16:56;;;;;;;30.13;12.80;;;2.80;99.90;;;;;;5014072;28;20038;-54
2021/01/07 08:19:31;;;;;;;30.33;12.15;;;2.70;99.90;;;;;;5013823;28;20026;-54
2021/01/07 08:21:57;;;;;;;33.05;13.52;;;2.80;99.90;;;;;;5013549;28;20042;-58
2021/01/07 08:24:26;;;;;;;28.92;12.63;;;2.80;99.90;;;;;;5012449;28;20026;-57
2021/01/07 08:27:21;;;;;;;32.38;12.70;;;2.80;99.90;;;;;;5012216;28;20049;-57
2021/01/07 08:29:53;;;;;;;27.90;10.95;;;2.80;99.90;;;;;;5012451;28;20052;-55
2021/01/07 08:32:24;;;;;;;28.88;11.55;;;2.80;99.90;;;;;;5012762;28;20030;-54
2021/01/07 08:34:51;;;;;;;25.88;10.45;;;2.80;99.90;;;;;;5013808;28;20032;-55
2021/01/07 08:37:21;;;;;;;22.52;10.07;;;2.80;99.90;;;;;;5012295;28;20153;-56
2021/01/07 08:39:48;;;;;;;24.67;9.63;;;2.90;99.90;;;;;;5013623;28;20037;-57
2021/01/07 08:42:14;;;;;;;23.60;10.07;;;2.80;99.90;;;;;;5013391;28;20084;-54
2021/01/07 08:44:41;;;;;;;24.40;10.05;;;2.90;99.90;;;;;;5013630;28;20033;-53
2021/01/07 08:47:27;;;;;;;23.30;9.95;;;2.90;99.90;;;;;;5013499;28;20073;-58
2021/01/07 08:50:06;;;;;;;27.23;10.82;;;2.90;99.90;;;;;;5013510;28;20029;-55
2021/01/07 08:52:54;;;;;;;22.42;10.27;;;2.90;99.90;;;;;;5013090;28;20069;-56
2021/01/07 08:55:51;;;;;;;23.08;10.82;;;2.80;99.90;;;;;;5013463;28;20084;-53
2021/01/07 08:58:26;;;;;;;29.70;9.85;;;3.00;99.90;;;;;;5007988;28;20046;-56
2021/01/07 09:00:53;;;;;;;22.35;10.77;;;3.00;99.90;;;;;;5013268;28;20116;-56
2021/01/07 09:03:20;;;;;;;25.92;11.15;;;3.00;99.90;;;;;;5013136;28;20034;-54
2021/01/07 09:05:46;;;;;;;26.35;10.95;;;3.00;99.90;;;;;;5012742;28;20030;-56
2021/01/07 09:08:15;;;;;;;20.70;8.85;;;2.90;99.90;;;;;;5012510;28;20087;-55
2021/01/07 09:10:41;;;;;;;20.02;9.82;;;2.90;99.90;;;;;;5012874;28;20030;-56
2021/01/07 09:13:23;;;;;;;22.00;8.90;;;2.90;99.90;;;;;;5012942;28;20030;-56
2021/01/07 09:15:50;;;;;;;20.27;9.35;;;3.00;99.90;;;;;;5013103;28;20037;-54
2021/01/07 09:18:19;;;;;;;24.90;11.00;;;3.00;99.90;;;;;;5013140;28;20030;-57
2021/01/07 09:20:46;;;;;;;27.45;10.80;;;3.10;99.90;;;;;;5012925;28;20049;-53
2021/01/07 09:23:16;;;;;;;22.98;10.10;;;3.00;99.90;;;;;;5012379;28;20084;-56
2021/01/07 09:25:43;;;;;;;24.10;11.10;;;3.10;99.90;;;;;;5012446;28;20052;-56
2021/01/07 09:28:09;;;;;;;24.63;10.98;;;3.00;99.90;;;;;;5012764;28;20037;-56
2021/01/07 09:30:36;;;;;;;26.10;11.25;;;3.10;99.90;;;;;;5012970;28;20034;-56
2021/01/07 09:33:03;;;;;;;32.65;12.82;;;3.00;99.90;;;;;;5012390;28;20117;-53
2021/01/07 09:35:29;;;;;;;27.27;11.90;;;3.10;99.90;;;;;;5012787;28;20034;-58
2021/01/07 09:37:56;;;;;;;20.23;8.48;;;3.20;99.90;;;;;;5012598;28;20022;-53
2021/01/07 09:40:22;;;;;;;26.27;11.02;;;3.30;99.90;;;;;;5012362;28;20057;-55
2021/01/07 09:42:48;;;;;;;23.25;9.85;;;3.20;99.90;;;;;;5012532;28;20030;-57
2021/01/07 09:45:14;;;;;;;26.63;10.85;;;3.20;99.90;;;;;;5012675;28;20049;-57
2021/01/07 09:47:40;;;;;;;24.42;11.27;;;3.20;99.90;;;;;;5012454;28;20123;-56
2021/01/07 09:50:12;;;;;;;25.42;9.05;;;3.20;99.90;;;;;;5012343;28;20084;-56
2021/01/07 09:52:37;;;;;;;;;;;3.20;99.90;;;;;;5012710;28;20064;-57
2021/01/07 09:55:08;;;;;;;25.92;10.85;;;3.20;99.90;;;;;;5012173;28;19949;-53
2021/01/07 09:57:36;;;;;;;24.63;10.88;;;3.20;99.90;;;;;;5012498;28;20073;-57
2021/01/07 10:00:05;;;;;;;23.65;9.68;;;3.30;99.90;;;;;;5012416;28;20034;-57
2021/01/07 10:02:31;;;;;;;26.67;9.88;;;3.20;99.90;;;;;;5012296;28;20030;-56
2021/01/07 10:04:57;;;;;;;23.45;10.27;;;3.30;99.90;;;;;;5012028;28;20186;-52
2021/01/07 10:07:23;;;;;;;23.65;10.73;;;3.30;99.90;;;;;;5011950;28;20081;-57
2021/01/07 10:09:49;;;;;;;20.95;9.32;;;3.30;99.90;;;;;;5012171;28;20036;-57
2021/01/07 10:12:15;;;;;;;20.73;8.82;;;3.40;99.90;;;;;;5012392;28;20037;-57
2021/01/07 10:14:41;;;;;;;24.95;10.40;;;3.50;99.90;;;;;;5011958;28;20117;-56
2021/01/07 10:17:08;;;;;;;24.85;10.25;;;3.40;99.90;;;;;;5012283;28;20438;-57
2021/01/07 10:19:38;;;;;;;25.08;9.88;;;3.30;99.90;;;;;;5027612;28;20030;-56
2021/01/07 10:22:12;;;;;;;25.00;10.27;;;3.30;99.90;;;;;;5011852;28;20034;-55
2021/01/07 10:24:47;;;;;;;22.05;8.98;;;3.40;99.90;;;;;;5011746;28;20084;-54
2021/01/07 10:27:19;;;;;;;25.80;10.73;;;3.50;99.90;;;;;;5011390;28;20054;-57
2021/01/07 10:29:46;;;;;;;30.17;9.77;;;3.50;99.90;;;;;;5011955;28;20037;-57
2021/01/07 10:32:18;;;;;;;25.35;8.85;;;3.50;99.90;;;;;;5011752;28;20030;-58
2021/01/07 10:34:49;;;;;;;22.20;10.27;;;3.40;99.90;;;;;;5012698;28;20030;-54
2021/01/07 10:37:22;;;;;;;26.08;9.57;;;3.50;99.90;;;;;;5015686;28;20119;-57
2021/01/07 10:39:51;;;;;;;22.30;9.57;;;3.50;99.90;;;;;;5015843;28;20030;-54
2021/01/07 10:42:18;;;;;;;24.20;9.73;;;3.50;99.90;;;;;;5015866;28;20029;-51
2021/01/07 10:44:46;;;;;;;21.40;10.80;;;3.40;99.90;;;;;;5015453;28;20123;-54
2021/01/07 10:47:15;;;;;;;25.48;10.50;;;3.50;99.90;;;;;;5015135;28;20129;-56
2021/01/07 10:49:44;;;;;;;24.23;10.27;;;3.50;99.90;;;;;;5015764;28;20030;-54
2021/01/07 10:52:17;;;;;;;22.52;9.80;;;3.50;99.90;;;;;;5015527;28;20038;-60
2021/01/07 10:55:11;;;;;;;26.45;10.48;;;3.50;99.90;;;;;;5015632;28;20083;-59
2021/01/07 10:58:14;;;;;;;26.60;9.88;;;3.60;99.90;;;;;;5014172;28;20041;-58
2021/01/07 11:01:20;;;;;;;23.38;11.10;;;3.50;99.90;;;;;;5015145;28;20041;-59
2021/01/07 11:04:25;;;;;;;23.08;9.25;;;3.40;99.90;;;;;;5014031;28;20125;-56
2021/01/07 11:07:10;;;;;;;20.92;9.88;;;3.50;99.90;;;;;;5013962;28;20065;-54
2021/01/07 11:09:40;;;;;;;24.35;9.60;;;3.40;99.90;;;;;;5013616;28;20113;-53
2021/01/07 11:12:15;;;;;;;23.23;9.07;;;3.50;99.90;;;;;;5015126;28;20121;-54
2021/01/07 11:14:53;;;;;;;23.58;9.25;;;3.50;99.90;;;;;;5014935;28;20033;-53
2021/01/07 11:17:33;;;;;;;26.63;9.73;;;3.50;99.90;;;;;;5013886;28;20030;-55
2021/01/07 11:20:06;;;;;;;23.15;9.50;;;3.50;99.90;;;;;;5014981;28;20040;-56
2021/01/07 11:22:37;;;;;;;28.13;10.95;;;3.60;99.90;;;;;;5013525;28;20046;-53
2021/01/07 11:25:04;;;;;;;24.42;10.13;;;3.50;99.90;;;;;;5013487;28;20041;-55
2021/01/07 11:27:31;;;;;;;21.65;9.38;;;3.50;99.90;;;;;;5014061;28;20100;-55
2021/01/07 11:30:03;;;;;;;24.60;9.65;;;3.40;99.90;;;;;;5013695;28;20046;-55
2021/01/07 11:32:30;;;;;;;23.85;9.25;;;3.60;99.90;;;;;;5011290;28;20029;-55
2021/01/07 11:34:59;;;;;;;21.83;9.35;;;3.70;99.90;;;;;;5012197;28;20076;-55
2021/01/07 11:38:00;;;;;;;22.92;9.80;;;3.70;99.90;;;;;;5014119;28;20033;-55
2021/01/07 11:40:48;;;;;;;28.27;10.48;;;3.70;99.90;;;;;;5013632;28;20034;-55
2021/01/07 11:43:42;;;;;;;20.38;8.43;;;3.70;99.90;;;;;;5013356;28;20048;-55
2021/01/07 11:46:17;;;;;;;21.83;8.85;;;3.70;99.90;;;;;;5014145;28;20095;-56
2021/01/07 11:48:57;;;;;;;22.58;8.45;;;3.70;99.90;;;;;;5014439;28;20037;-55
2021/01/07 11:51:23;;;;;;;28.95;9.40;;;3.80;99.90;;;;;;5013036;28;20123;-54
2021/01/07 11:53:52;;;;;;;23.73;9.95;;;3.70;99.90;;;;;;5014082;28;20037;-56
2021/01/07 11:56:18;;;;;;;24.23;8.70;;;3.70;99.90;;;;;;5014302;28;20080;-52
2021/01/07 11:58:46;;;;;;;21.27;8.85;;;3.70;99.90;;;;;;5013122;28;20044;-52
2021/01/07 12:01:12;;;;;;;24.75;9.98;;;3.70;99.90;;;;;;5013031;28;20065;-54
2021/01/07 12:03:38;;;;;;;18.15;8.32;;;3.80;99.90;;;;;;5013168;28;20080;-55
2021/01/07 12:06:09;;;;;;;22.33;9.55;;;3.80;99.90;;;;;;5014123;28;20034;-56
2021/01/07 12:09:02;;;;;;;21.42;8.57;;;3.80;99.90;;;;;;5014091;28;20030;-52
2021/01/07 12:11:37;;;;;;;24.08;9.38;;;3.70;99.90;;;;;;5014129;28;20048;-55
2021/01/07 12:14:13;;;;;;;22.08;7.85;;;3.80;99.90;;;;;;5013835;28;20033;-55
2021/01/07 12:16:52;;;;;;;19.67;8.93;;;3.80;99.90;;;;;;5013860;28;20033;-55
2021/01/07 12:19:22;;;;;;;20.48;8.65;;;3.80;99.90;;;;;;5012471;28;20040;-55
2021/01/07 12:21:49;;;;;;;17.33;7.53;;;3.80;99.90;;;;;;5013684;28;20030;-55
2021/01/07 12:24:19;;;;;;;22.10;8.88;;;3.70;99.90;;;;;;5013755;28;20113;-54
2021/01/07 12:26:46;;;;;;;19.83;8.48;;;3.80;99.90;;;;;;5013417;28;20049;-55
2021/01/07 12:29:20;;;;;;;17.75;7.88;;;3.80;99.90;;;;;;5013508;28;20038;-53
2021/01/07 12:31:58;;;;;;;19.00;8.50;;;3.90;99.90;;;;;;5013851;28;20026;-50
2021/01/07 12:35:12;;;;;;;16.25;6.93;;;3.90;99.90;;;;;;5013780;28;20029;-53
2021/01/07 12:38:31;;;;;;;21.95;10.27;;;3.90;99.90;;;;;;5013374;28;20044;-56
2021/01/07 12:41:15;;;;;;;18.95;8.32;;;3.80;99.90;;;;;;5007817;28;20111;-55
2021/01/07 12:43:48;;;;;;;18.58;7.75;;;3.80;99.90;;;;;;5013366;28;20033;-49
2021/01/07 12:46:18;;;;;;;17.23;8.32;;;3.80;99.90;;;;;;5012243;28;20054;-54
2021/01/07 12:48:45;;;;;;;17.75;8.18;;;3.90;99.90;;;;;;5012274;28;20030;-54
2021/01/07 12:51:14;;;;;;;19.15;8.30;;;3.90;99.90;;;;;;5011521;28;20125;-56
2021/01/07 12:53:40;;;;;;;17.52;7.95;;;3.80;99.90;;;;;;5013256;28;20030;-54
2021/01/07 12:56:13;;;;;;;17.88;7.88;;;3.80;99.90;;;;;;5013322;28;20100;-55
2021/01/07 12:58:43;;;;;;;19.45;8.38;;;3.80;99.90;;;;;;5011750;28;20054;-57